sensor_id;sensor_type;location;lat;lon;timestamp;pressure;altitude;pressure_sealevel;temperature;humidity
40992;BME280;29633;49.168;9.848;2023-04-29T00:00:10;96483.41;;;17.24;68.71
40992;BME280;29633;49.168;9.848;2023-04-29T00:02:36;96486.03;;;17.24;68.76
40992;BME280;29633;49.168;9.848;2023-04-29T00:05:01;96481.78;;;17.23;68.66
40992;BME280;29633;49.168;9.848;2023-04-29T00:07:31;96478.34;;;17.22;68.68
40992;BME280;29633;49.168;9.848;2023-04-29T00:10:01;96472.13;;;17.23;68.80
40992;BME280;29633;49.168;9.848;2023-04-29T00:12:26;96479.81;;;17.25;68.62
40992;BME280;29633;49.168;9.848;2023-04-29T00:14:54;96477.19;;;17.25;68.67
40992;BME280;29633;49.168;9.848;2023-04-29T00:17:20;96468.16;;;17.28;68.67
40992;BME280;29633;49.168;9.848;2023-04-29T00:19:45;96468.31;;;17.26;68.83
40992;BME280;29633;49.168;9.848;2023-04-29T00:22:12;96473.41;;;17.28;68.86
40992;BME280;29633;49.168;9.848;2023-04-29T00:24:38;96468.31;;;17.26;68.80
40992;BME280;29633;49.168;9.848;2023-04-29T00:27:03;96471.28;;;17.23;68.92
40992;BME280;29633;49.168;9.848;2023-04-29T00:29:30;96468.03;;;17.21;68.92
40992;BME280;29633;49.168;9.848;2023-04-29T00:31:55;96467.38;;;17.19;68.93
40992;BME280;29633;49.168;9.848;2023-04-29T00:34:21;96470.19;;;17.17;68.79
40992;BME280;29633;49.168;9.848;2023-04-29T00:36:47;96471.31;;;17.15;68.78
40992;BME280;29633;49.168;9.848;2023-04-29T00:39:13;96472.69;;;17.11;68.80
40992;BME280;29633;49.168;9.848;2023-04-29T00:41:39;96469.75;;;17.06;68.71
40992;BME280;29633;49.168;9.848;2023-04-29T00:44:05;96465.34;;;16.98;68.77
40992;BME280;29633;49.168;9.848;2023-04-29T00:46:32;96473.25;;;16.90;68.85
40992;BME280;29633;49.168;9.848;2023-04-29T00:48:58;96478.34;;;16.84;68.79
40992;BME280;29633;49.168;9.848;2023-04-29T00:51:24;96472.47;;;16.82;68.84
40992;BME280;29633;49.168;9.848;2023-04-29T00:53:50;96475.75;;;16.76;68.73
40992;BME280;29633;49.168;9.848;2023-04-29T00:56:16;96476.91;;;16.73;68.83
40992;BME280;29633;49.168;9.848;2023-04-29T00:58:42;96476.75;;;16.75;68.55
40992;BME280;29633;49.168;9.848;2023-04-29T01:01:14;96481.31;;;16.72;68.51
40992;BME280;29633;49.168;9.848;2023-04-29T01:03:40;96477.06;;;16.71;68.54
40992;BME280;29633;49.168;9.848;2023-04-29T01:06:16;96483.47;;;16.69;68.42
40992;BME280;29633;49.168;9.848;2023-04-29T01:09:05;96477.59;;;16.67;68.38
40992;BME280;29633;49.168;9.848;2023-04-29T01:11:41;96482.97;;;16.65;68.40
40992;BME280;29633;49.168;9.848;2023-04-29T01:14:13;96480.69;;;16.62;68.46
40992;BME280;29633;49.168;9.848;2023-04-29T01:16:43;96479.88;;;16.62;68.34
40992;BME280;29633;49.168;9.848;2023-04-29T01:19:26;96484.97;;;16.63;68.56
40992;BME280;29633;49.168;9.848;2023-04-29T01:21:57;96489.38;;;16.63;68.36
40992;BME280;29633;49.168;9.848;2023-04-29T01:24:23;96486.41;;;16.66;68.59
40992;BME280;29633;49.168;9.848;2023-04-29T01:26:53;96485.09;;;16.70;68.57
40992;BME280;29633;49.168;9.848;2023-04-29T01:29:31;96488.19;;;16.73;68.50
40992;BME280;29633;49.168;9.848;2023-04-29T01:32:04;96486.06;;;16.77;68.21
40992;BME280;29633;49.168;9.848;2023-04-29T01:34:47;96489.16;;;16.81;68.47
40992;BME280;29633;49.168;9.848;2023-04-29T01:37:26;96483.56;;;16.84;68.60
40992;BME280;29633;49.168;9.848;2023-04-29T01:40:33;96495.34;;;16.88;68.38
40992;BME280;29633;49.168;9.848;2023-04-29T01:43:01;96495.81;;;16.91;68.50
40992;BME280;29633;49.168;9.848;2023-04-29T01:45:29;96494.66;;;16.94;68.48
40992;BME280;29633;49.168;9.848;2023-04-29T01:47:56;96492.53;;;16.97;68.62
40992;BME280;29633;49.168;9.848;2023-04-29T01:50:23;96484.31;;;17.00;68.70
40992;BME280;29633;49.168;9.848;2023-04-29T01:52:49;96484.78;;;17.04;68.89
40992;BME280;29633;49.168;9.848;2023-04-29T01:55:15;96480.03;;;17.07;68.88
40992;BME280;29633;49.168;9.848;2023-04-29T01:57:41;96486.09;;;17.08;68.84
40992;BME280;29633;49.168;9.848;2023-04-29T02:00:10;96479.06;;;17.08;68.91
40992;BME280;29633;49.168;9.848;2023-04-29T02:02:36;96490.00;;;17.12;69.09
40992;BME280;29633;49.168;9.848;2023-04-29T02:05:02;96486.41;;;17.13;69.23
40992;BME280;29633;49.168;9.848;2023-04-29T02:07:27;96479.03;;;17.16;69.05
40992;BME280;29633;49.168;9.848;2023-04-29T02:09:55;96481.50;;;17.18;69.36
40992;BME280;29633;49.168;9.848;2023-04-29T02:12:21;96476.72;;;17.21;69.13
40992;BME280;29633;49.168;9.848;2023-04-29T02:14:51;96478.81;;;17.26;69.38
40992;BME280;29633;49.168;9.848;2023-04-29T02:17:17;96486.31;;;17.29;69.22
40992;BME280;29633;49.168;9.848;2023-04-29T02:19:45;96491.06;;;17.34;69.31
40992;BME280;29633;49.168;9.848;2023-04-29T02:22:11;96494.97;;;17.38;69.27
40992;BME280;29633;49.168;9.848;2023-04-29T02:24:37;96490.19;;;17.41;69.33
40992;BME280;29633;49.168;9.848;2023-04-29T02:27:03;96490.66;;;17.45;69.28
40992;BME280;29633;49.168;9.848;2023-04-29T02:29:31;96493.75;;;17.48;69.52
40992;BME280;29633;49.168;9.848;2023-04-29T02:31:56;96497.03;;;17.50;69.39
40992;BME280;29633;49.168;9.848;2023-04-29T02:34:22;96497.34;;;17.47;69.56
40992;BME280;29633;49.168;9.848;2023-04-29T02:36:49;96495.75;;;17.46;69.52
40992;BME280;29633;49.168;9.848;2023-04-29T02:39:14;96499.19;;;17.47;69.58
40992;BME280;29633;49.168;9.848;2023-04-29T02:41:41;96507.06;;;17.47;69.93
40992;BME280;29633;49.168;9.848;2023-04-29T02:44:07;96499.97;;;17.47;69.79
40992;BME280;29633;49.168;9.848;2023-04-29T02:46:32;96498.03;;;17.49;69.66
40992;BME280;29633;49.168;9.848;2023-04-29T02:49:00;96500.28;;;17.52;69.77
40992;BME280;29633;49.168;9.848;2023-04-29T02:51:26;96503.56;;;17.54;69.91
40992;BME280;29633;49.168;9.848;2023-04-29T02:53:52;96500.44;;;17.59;69.77
40992;BME280;29633;49.168;9.848;2023-04-29T02:56:18;96502.91;;;17.60;69.94
40992;BME280;29633;49.168;9.848;2023-04-29T02:58:44;96500.28;;;17.60;69.93
40992;BME280;29633;49.168;9.848;2023-04-29T03:01:09;96490.06;;;17.65;69.86
40992;BME280;29633;49.168;9.848;2023-04-29T03:03:38;96495.00;;;17.68;69.92
40992;BME280;29633;49.168;9.848;2023-04-29T03:06:04;96492.03;;;17.72;69.84
40992;BME280;29633;49.168;9.848;2023-04-29T03:08:30;96492.50;;;17.75;70.02
40992;BME280;29633;49.168;9.848;2023-04-29T03:10:55;96492.28;;;17.77;69.83
40992;BME280;29633;49.168;9.848;2023-04-29T03:13:21;96487.72;;;17.79;69.96
40992;BME280;29633;49.168;9.848;2023-04-29T03:15:49;96489.16;;;17.81;69.84
40992;BME280;29633;49.168;9.848;2023-04-29T03:18:15;96496.88;;;17.83;69.88
40992;BME280;29633;49.168;9.848;2023-04-29T03:20:41;96485.34;;;17.84;70.25
40992;BME280;29633;49.168;9.848;2023-04-29T03:23:06;96492.25;;;17.85;69.80
40992;BME280;29633;49.168;9.848;2023-04-29T03:25:32;96487.00;;;17.85;69.92
40992;BME280;29633;49.168;9.848;2023-04-29T03:27:58;96481.75;;;17.85;70.06
40992;BME280;29633;49.168;9.848;2023-04-29T03:30:23;96484.03;;;17.88;69.90
40992;BME280;29633;49.168;9.848;2023-04-29T03:32:49;96489.72;;;17.91;69.90
40992;BME280;29633;49.168;9.848;2023-04-29T03:35:14;96483.34;;;17.94;70.11
40992;BME280;29633;49.168;9.848;2023-04-29T03:37:40;96486.59;;;17.96;70.04
40992;BME280;29633;49.168;9.848;2023-04-29T03:40:09;96485.97;;;17.94;70.12
40992;BME280;29633;49.168;9.848;2023-04-29T03:42:35;96490.19;;;17.95;69.90
40992;BME280;29633;49.168;9.848;2023-04-29T03:45:01;96477.75;;;17.97;69.73
40992;BME280;29633;49.168;9.848;2023-04-29T03:47:26;96481.97;;;17.98;69.94
40992;BME280;29633;49.168;9.848;2023-04-29T03:49:52;96485.41;;;17.98;69.92
40992;BME280;29633;49.168;9.848;2023-04-29T03:52:17;96491.84;;;17.96;70.06
40992;BME280;29633;49.168;9.848;2023-04-29T03:54:43;96490.19;;;17.95;70.05
40992;BME280;29633;49.168;9.848;2023-04-29T03:57:09;96491.22;;;17.94;69.91
40992;BME280;29633;49.168;9.848;2023-04-29T03:59:35;96491.00;;;17.95;69.86
40992;BME280;29633;49.168;9.848;2023-04-29T04:02:00;96484.94;;;17.95;69.89
40992;BME280;29633;49.168;9.848;2023-04-29T04:04:26;96486.75;;;17.94;70.13
40992;BME280;29633;49.168;9.848;2023-04-29T04:06:52;96484.78;;;17.96;70.15
40992;BME280;29633;49.168;9.848;2023-04-29T04:09:17;96492.47;;;17.98;69.90
40992;BME280;29633;49.168;9.848;2023-04-29T04:11:45;96500.34;;;17.98;69.84
40992;BME280;29633;49.168;9.848;2023-04-29T04:14:11;96499.69;;;17.96;70.25
40992;BME280;29633;49.168;9.848;2023-04-29T04:16:37;96501.34;;;17.97;70.13
40992;BME280;29633;49.168;9.848;2023-04-29T04:19:03;96501.81;;;18.00;70.19
40992;BME280;29633;49.168;9.848;2023-04-29T04:21:28;96504.44;;;18.00;70.19
40992;BME280;29633;49.168;9.848;2023-04-29T04:23:54;96510.97;;;18.04;69.87
40992;BME280;29633;49.168;9.848;2023-04-29T04:26:20;96515.84;;;18.07;69.86
40992;BME280;29633;49.168;9.848;2023-04-29T04:28:47;96504.69;;;18.05;70.07
40992;BME280;29633;49.168;9.848;2023-04-29T04:31:13;96516.66;;;18.08;69.86
40992;BME280;29633;49.168;9.848;2023-04-29T04:33:39;96517.81;;;18.05;69.79
40992;BME280;29633;49.168;9.848;2023-04-29T04:36:05;96518.63;;;18.06;69.95
40992;BME280;29633;49.168;9.848;2023-04-29T04:38:31;96522.91;;;18.07;69.81
40992;BME280;29633;49.168;9.848;2023-04-29T04:40:57;96522.28;;;18.05;70.08
40992;BME280;29633;49.168;9.848;2023-04-29T04:43:23;96520.63;;;18.04;70.05
40992;BME280;29633;49.168;9.848;2023-04-29T04:45:49;96534.72;;;18.03;70.07
40992;BME280;29633;49.168;9.848;2023-04-29T04:48:14;96536.72;;;18.01;70.01
40992;BME280;29633;49.168;9.848;2023-04-29T04:50:40;96527.06;;;18.01;70.09
40992;BME280;29633;49.168;9.848;2023-04-29T04:53:06;96535.56;;;18.03;69.76
40992;BME280;29633;49.168;9.848;2023-04-29T04:55:32;96534.56;;;18.04;69.90
40992;BME280;29633;49.168;9.848;2023-04-29T04:58:01;96542.91;;;18.08;69.94
40992;BME280;29633;49.168;9.848;2023-04-29T05:00:26;96533.03;;;18.10;69.83
40992;BME280;29633;49.168;9.848;2023-04-29T05:02:52;96535.50;;;18.11;69.75
40992;BME280;29633;49.168;9.848;2023-04-29T05:05:17;96538.13;;;18.11;69.82
40992;BME280;29633;49.168;9.848;2023-04-29T05:07:43;96537.09;;;18.12;69.72
40992;BME280;29633;49.168;9.848;2023-04-29T05:10:09;96535.78;;;18.16;69.91
40992;BME280;29633;49.168;9.848;2023-04-29T05:12:36;96545.28;;;18.17;69.65
40992;BME280;29633;49.168;9.848;2023-04-29T05:15:02;96548.25;;;18.14;69.92
40992;BME280;29633;49.168;9.848;2023-04-29T05:17:30;96553.88;;;18.11;69.81
40992;BME280;29633;49.168;9.848;2023-04-29T05:19:56;96567.34;;;18.08;69.87
40992;BME280;29633;49.168;9.848;2023-04-29T05:22:22;96557.63;;;18.09;69.82
40992;BME280;29633;49.168;9.848;2023-04-29T05:24:47;96557.81;;;18.07;70.06
40992;BME280;29633;49.168;9.848;2023-04-29T05:27:14;96570.13;;;18.07;70.06
40992;BME280;29633;49.168;9.848;2023-04-29T05:29:39;96564.53;;;18.10;70.09
40992;BME280;29633;49.168;9.848;2023-04-29T05:32:05;96559.94;;;18.12;69.82
40992;BME280;29633;49.168;9.848;2023-04-29T05:34:31;96564.16;;;18.13;69.83
40992;BME280;29633;49.168;9.848;2023-04-29T05:36:57;96573.50;;;18.15;69.98
40992;BME280;29633;49.168;9.848;2023-04-29T05:39:22;96567.25;;;18.16;69.82
40992;BME280;29633;49.168;9.848;2023-04-29T05:41:48;96574.31;;;18.16;70.07
40992;BME280;29633;49.168;9.848;2023-04-29T05:44:14;96579.09;;;18.12;69.94
40992;BME280;29633;49.168;9.848;2023-04-29T05:46:39;96588.94;;;18.10;70.00
40992;BME280;29633;49.168;9.848;2023-04-29T05:49:05;96593.09;;;18.05;70.35
40992;BME280;29633;49.168;9.848;2023-04-29T05:51:31;96596.88;;;18.02;70.15
40992;BME280;29633;49.168;9.848;2023-04-29T05:53:56;96584.63;;;17.95;70.27
40992;BME280;29633;49.168;9.848;2023-04-29T05:56:24;96600.22;;;17.88;70.57
40992;BME280;29633;49.168;9.848;2023-04-29T05:58:50;96607.63;;;17.85;70.43
40992;BME280;29633;49.168;9.848;2023-04-29T06:01:16;96609.97;;;17.80;70.84
40992;BME280;29633;49.168;9.848;2023-04-29T06:03:42;96617.31;;;17.76;70.55
40992;BME280;29633;49.168;9.848;2023-04-29T06:06:08;96613.91;;;17.76;70.72
40992;BME280;29633;49.168;9.848;2023-04-29T06:08:34;96620.63;;;17.78;70.52
40992;BME280;29633;49.168;9.848;2023-04-29T06:10:59;96620.47;;;17.80;70.64
40992;BME280;29633;49.168;9.848;2023-04-29T06:13:30;96618.31;;;17.83;70.36
40992;BME280;29633;49.168;9.848;2023-04-29T06:15:56;96628.78;;;17.83;70.40
40992;BME280;29633;49.168;9.848;2023-04-29T06:18:21;96628.94;;;17.82;70.60
40992;BME280;29633;49.168;9.848;2023-04-29T06:20:47;96633.22;;;17.83;70.48
40992;BME280;29633;49.168;9.848;2023-04-29T06:23:13;96633.84;;;17.85;70.33
40992;BME280;29633;49.168;9.848;2023-04-29T06:25:39;96641.56;;;17.86;70.43
40992;BME280;29633;49.168;9.848;2023-04-29T06:28:04;96639.09;;;17.85;70.36
40992;BME280;29633;49.168;9.848;2023-04-29T06:30:33;96645.31;;;17.84;70.49
40992;BME280;29633;49.168;9.848;2023-04-29T06:32:58;96645.66;;;17.81;70.66
40992;BME280;29633;49.168;9.848;2023-04-29T06:35:24;96644.53;;;17.83;70.35
40992;BME280;29633;49.168;9.848;2023-04-29T06:37:50;96652.88;;;17.87;70.51
40992;BME280;29633;49.168;9.848;2023-04-29T06:40:19;96655.50;;;17.87;70.29
40992;BME280;29633;49.168;9.848;2023-04-29T06:42:45;96651.84;;;17.88;70.42
40992;BME280;29633;49.168;9.848;2023-04-29T06:45:11;96653.03;;;17.85;70.56
40992;BME280;29633;49.168;9.848;2023-04-29T06:47:36;96660.06;;;17.85;70.63
40992;BME280;29633;49.168;9.848;2023-04-29T06:50:02;96660.75;;;17.87;70.50
40992;BME280;29633;49.168;9.848;2023-04-29T06:52:28;96652.69;;;17.88;70.36
40992;BME280;29633;49.168;9.848;2023-04-29T06:54:54;96665.78;;;17.88;70.36
40992;BME280;29633;49.168;9.848;2023-04-29T06:57:19;96666.13;;;17.85;70.62
40992;BME280;29633;49.168;9.848;2023-04-29T06:59:45;96667.31;;;17.83;70.47
40992;BME280;29633;49.168;9.848;2023-04-29T07:02:11;96669.59;;;17.78;70.58
40992;BME280;29633;49.168;9.848;2023-04-29T07:04:37;96674.69;;;17.79;70.56
40992;BME280;29633;49.168;9.848;2023-04-29T07:07:02;96675.53;;;17.80;70.60
40992;BME280;29633;49.168;9.848;2023-04-29T07:09:28;96672.91;;;17.80;70.43
40992;BME280;29633;49.168;9.848;2023-04-29T07:11:54;96679.47;;;17.76;70.54
40992;BME280;29633;49.168;9.848;2023-04-29T07:14:20;96677.22;;;17.64;70.81
40992;BME280;29633;49.168;9.848;2023-04-29T07:16:47;96684.94;;;17.58;70.77
40992;BME280;29633;49.168;9.848;2023-04-29T07:19:12;96687.72;;;17.56;70.70
40992;BME280;29633;49.168;9.848;2023-04-29T07:21:38;96693.06;;;17.55;70.72
40992;BME280;29633;49.168;9.848;2023-04-29T07:24:04;96690.47;;;17.55;70.70
40992;BME280;29633;49.168;9.848;2023-04-29T07:26:32;96693.06;;;17.55;70.63
40992;BME280;29633;49.168;9.848;2023-04-29T07:28:57;96699.97;;;17.56;70.83
40992;BME280;29633;49.168;9.848;2023-04-29T07:31:23;96707.19;;;17.54;70.88
40992;BME280;29633;49.168;9.848;2023-04-29T07:33:49;96699.47;;;17.52;71.04
40992;BME280;29633;49.168;9.848;2023-04-29T07:36:14;96712.59;;;17.52;70.76
40992;BME280;29633;49.168;9.848;2023-04-29T07:38:40;96707.50;;;17.51;70.71
40992;BME280;29633;49.168;9.848;2023-04-29T07:41:06;96716.19;;;17.51;70.78
40992;BME280;29633;49.168;9.848;2023-04-29T07:43:31;96714.72;;;17.49;70.80
40992;BME280;29633;49.168;9.848;2023-04-29T07:45:57;96715.06;;;17.46;70.67
40992;BME280;29633;49.168;9.848;2023-04-29T07:48:22;96722.09;;;17.45;70.76
40992;BME280;29633;49.168;9.848;2023-04-29T07:50:48;96717.69;;;17.46;70.66
40992;BME280;29633;49.168;9.848;2023-04-29T07:53:14;96721.78;;;17.48;70.71
40992;BME280;29633;49.168;9.848;2023-04-29T07:55:42;96723.75;;;17.46;70.78
40992;BME280;29633;49.168;9.848;2023-04-29T07:58:08;96713.41;;;17.45;70.98
40992;BME280;29633;49.168;9.848;2023-04-29T08:00:36;96724.38;;;17.48;70.96
40992;BME280;29633;49.168;9.848;2023-04-29T08:03:02;96727.00;;;17.48;70.72
40992;BME280;29633;49.168;9.848;2023-04-29T08:05:27;96733.56;;;17.52;70.71
40992;BME280;29633;49.168;9.848;2023-04-29T08:07:54;96738.66;;;17.54;70.70
40992;BME280;29633;49.168;9.848;2023-04-29T08:10:20;96740.59;;;17.52;70.75
40992;BME280;29633;49.168;9.848;2023-04-29T08:12:47;96736.53;;;17.49;70.80
40992;BME280;29633;49.168;9.848;2023-04-29T08:15:13;96741.91;;;17.48;70.98
40992;BME280;29633;49.168;9.848;2023-04-29T08:17:40;96745.06;;;17.43;71.04
40992;BME280;29633;49.168;9.848;2023-04-29T08:20:06;96757.34;;;17.43;70.76
40992;BME280;29633;49.168;9.848;2023-04-29T08:22:33;96752.41;;;17.48;70.76
40992;BME280;29633;49.168;9.848;2023-04-29T08:24:58;96759.91;;;17.51;70.95
40992;BME280;29633;49.168;9.848;2023-04-29T08:27:24;96761.91;;;17.49;70.93
40992;BME280;29633;49.168;9.848;2023-04-29T08:29:50;96766.00;;;17.51;70.89
40992;BME280;29633;49.168;9.848;2023-04-29T08:32:16;96757.97;;;17.53;70.92
40992;BME280;29633;49.168;9.848;2023-04-29T08:34:41;96761.41;;;17.53;70.92
40992;BME280;29633;49.168;9.848;2023-04-29T08:37:09;96762.38;;;17.52;70.97
40992;BME280;29633;49.168;9.848;2023-04-29T08:39:35;96769.63;;;17.50;70.92
40992;BME280;29633;49.168;9.848;2023-04-29T08:42:07;96772.38;;;17.49;70.74
40992;BME280;29633;49.168;9.848;2023-04-29T08:44:32;96773.69;;;17.53;70.87
40992;BME280;29633;49.168;9.848;2023-04-29T08:46:59;96759.63;;;17.54;70.83
40992;BME280;29633;49.168;9.848;2023-04-29T08:49:29;96761.41;;;17.53;70.90
40992;BME280;29633;49.168;9.848;2023-04-29T08:51:54;96763.25;;;17.61;70.84
40992;BME280;29633;49.168;9.848;2023-04-29T08:54:20;96774.03;;;17.66;70.80
40992;BME280;29633;49.168;9.848;2023-04-29T08:56:46;96772.56;;;17.72;70.74
40992;BME280;29633;49.168;9.848;2023-04-29T08:59:15;96774.66;;;17.76;70.72
40992;BME280;29633;49.168;9.848;2023-04-29T09:01:42;96764.97;;;17.77;70.71
40992;BME280;29633;49.168;9.848;2023-04-29T09:04:14;96771.53;;;17.81;70.71
40992;BME280;29633;49.168;9.848;2023-04-29T09:06:44;96768.25;;;17.87;70.42
40992;BME280;29633;49.168;9.848;2023-04-29T09:09:09;96772.16;;;17.91;70.64
40992;BME280;29633;49.168;9.848;2023-04-29T09:11:36;96773.63;;;18.01;70.48
40992;BME280;29633;49.168;9.848;2023-04-29T09:14:02;96770.47;;;18.06;70.64
40992;BME280;29633;49.168;9.848;2023-04-29T09:16:28;96769.81;;;18.12;70.35
40992;BME280;29633;49.168;9.848;2023-04-29T09:18:55;96777.81;;;18.18;70.56
40992;BME280;29633;49.168;9.848;2023-04-29T09:21:25;96778.44;;;18.20;70.67
40992;BME280;29633;49.168;9.848;2023-04-29T09:23:56;96772.84;;;18.24;70.55
40992;BME280;29633;49.168;9.848;2023-04-29T09:26:22;96777.31;;;18.23;70.75
40992;BME280;29633;49.168;9.848;2023-04-29T09:31:33;96778.09;;;18.24;70.68
40992;BME280;29633;49.168;9.848;2023-04-29T09:33:59;96773.69;;;18.24;70.50
40992;BME280;29633;49.168;9.848;2023-04-29T09:39:00;96780.72;;;18.24;70.55
40992;BME280;29633;49.168;9.848;2023-04-29T09:41:25;96774.19;;;18.19;70.62
40992;BME280;29633;49.168;9.848;2023-04-29T09:44:08;96793.56;;;18.18;70.71
40992;BME280;29633;49.168;9.848;2023-04-29T09:46:34;96791.91;;;18.17;70.46
40992;BME280;29633;49.168;9.848;2023-04-29T09:49:20;96795.53;;;18.16;70.85
40992;BME280;29633;49.168;9.848;2023-04-29T09:51:52;96797.16;;;18.17;70.70
40992;BME280;29633;49.168;9.848;2023-04-29T09:54:37;96794.19;;;18.20;70.61
40992;BME280;29633;49.168;9.848;2023-04-29T09:57:04;96793.69;;;18.25;70.48
40992;BME280;29633;49.168;9.848;2023-04-29T09:59:34;96795.00;;;18.29;70.59
40992;BME280;29633;49.168;9.848;2023-04-29T10:02:01;96798.25;;;18.31;70.34
40992;BME280;29633;49.168;9.848;2023-04-29T10:04:28;96801.88;;;18.30;70.47
40992;BME280;29633;49.168;9.848;2023-04-29T10:06:58;96802.03;;;18.29;70.41
40992;BME280;29633;49.168;9.848;2023-04-29T10:09:25;96806.47;;;18.28;70.68
40992;BME280;29633;49.168;9.848;2023-04-29T10:11:51;96810.75;;;18.29;70.68
40992;BME280;29633;49.168;9.848;2023-04-29T10:14:19;96791.72;;;18.27;70.57
40992;BME280;29633;49.168;9.848;2023-04-29T10:19:50;96807.13;;;18.30;70.81
40992;BME280;29633;49.168;9.848;2023-04-29T10:22:24;96811.56;;;18.30;70.81
40992;BME280;29633;49.168;9.848;2023-04-29T10:24:52;96806.47;;;18.28;70.58
40992;BME280;29633;49.168;9.848;2023-04-29T10:27:19;96804.81;;;18.27;70.71
40992;BME280;29633;49.168;9.848;2023-04-29T10:29:47;96809.09;;;18.28;70.65
40992;BME280;29633;49.168;9.848;2023-04-29T10:32:14;96804.50;;;18.30;70.76
40992;BME280;29633;49.168;9.848;2023-04-29T10:34:40;96803.81;;;18.36;70.43
40992;BME280;29633;49.168;9.848;2023-04-29T10:37:10;96807.56;;;18.42;70.41
40992;BME280;29633;49.168;9.848;2023-04-29T10:45:28;96810.66;;;18.45;70.64
40992;BME280;29633;49.168;9.848;2023-04-29T10:50:43;96802.28;;;18.50;70.36
40992;BME280;29633;49.168;9.848;2023-04-29T10:53:23;96810.50;;;18.47;70.26
40992;BME280;29633;49.168;9.848;2023-04-29T10:55:57;96808.50;;;18.49;70.50
40992;BME280;29633;49.168;9.848;2023-04-29T10:58:45;96821.16;;;18.53;70.37
40992;BME280;29633;49.168;9.848;2023-04-29T11:01:15;96808.69;;;18.55;70.40
40992;BME280;29633;49.168;9.848;2023-04-29T11:03:54;96810.31;;;18.56;70.31
40992;BME280;29633;49.168;9.848;2023-04-29T11:06:38;96803.91;;;18.59;70.33
40992;BME280;29633;49.168;9.848;2023-04-29T11:09:12;96812.09;;;18.64;70.27
40992;BME280;29633;49.168;9.848;2023-04-29T11:11:42;96805.38;;;18.61;70.14
40992;BME280;29633;49.168;9.848;2023-04-29T11:14:09;96805.84;;;18.65;70.07
40992;BME280;29633;49.168;9.848;2023-04-29T11:17:01;96805.19;;;18.63;70.23
40992;BME280;29633;49.168;9.848;2023-04-29T11:19:32;96809.44;;;18.64;70.44
40992;BME280;29633;49.168;9.848;2023-04-29T11:22:10;96808.47;;;18.65;69.84
40992;BME280;29633;49.168;9.848;2023-04-29T11:24:48;96808.00;;;18.61;70.26
40992;BME280;29633;49.168;9.848;2023-04-29T11:27:14;96809.97;;;18.59;69.94
40992;BME280;29633;49.168;9.848;2023-04-29T11:29:40;96812.59;;;18.59;70.10
40992;BME280;29633;49.168;9.848;2023-04-29T11:32:06;96812.31;;;18.54;70.09
40992;BME280;29633;49.168;9.848;2023-04-29T11:34:32;96818.38;;;18.55;70.22
40992;BME280;29633;49.168;9.848;2023-04-29T11:36:57;96806.88;;;18.56;70.07
40992;BME280;29633;49.168;9.848;2023-04-29T11:39:23;96806.88;;;18.56;70.25
40992;BME280;29633;49.168;9.848;2023-04-29T11:41:49;96809.69;;;18.54;70.18
40992;BME280;29633;49.168;9.848;2023-04-29T11:44:15;96811.13;;;18.57;70.22
40992;BME280;29633;49.168;9.848;2023-04-29T11:46:45;96818.38;;;18.55;70.15
40992;BME280;29633;49.168;9.848;2023-04-29T11:49:11;96817.22;;;18.57;70.31
40992;BME280;29633;49.168;9.848;2023-04-29T11:51:36;96814.91;;;18.62;70.24
40992;BME280;29633;49.168;9.848;2023-04-29T11:54:02;96814.81;;;18.71;69.88
40992;BME280;29633;49.168;9.848;2023-04-29T11:56:28;96821.84;;;18.78;69.78
40992;BME280;29633;49.168;9.848;2023-04-29T11:58:57;96819.34;;;18.85;69.86
40992;BME280;29633;49.168;9.848;2023-04-29T12:01:24;96816.31;;;18.96;69.88
40992;BME280;29633;49.168;9.848;2023-04-29T12:03:58;96814.94;;;19.08;69.85
40992;BME280;29633;49.168;9.848;2023-04-29T12:06:27;96813.91;;;19.17;69.65
40992;BME280;29633;49.168;9.848;2023-04-29T12:08:53;96814.47;;;19.27;69.51
40992;BME280;29633;49.168;9.848;2023-04-29T12:11:21;96816.38;;;19.33;69.71
40992;BME280;29633;49.168;9.848;2023-04-29T12:13:49;96813.06;;;19.39;69.45
40992;BME280;29633;49.168;9.848;2023-04-29T12:16:15;96818.31;;;19.39;69.61
40992;BME280;29633;49.168;9.848;2023-04-29T12:18:40;96813.06;;;19.39;69.95
40992;BME280;29633;49.168;9.848;2023-04-29T12:21:06;96815.50;;;19.41;69.76
40992;BME280;29633;49.168;9.848;2023-04-29T12:23:32;96810.63;;;19.38;69.46
40992;BME280;29633;49.168;9.848;2023-04-29T12:26:00;96812.13;;;19.32;69.53
40992;BME280;29633;49.168;9.848;2023-04-29T12:28:27;96816.75;;;19.30;69.82
40992;BME280;29633;49.168;9.848;2023-04-29T12:30:53;96822.53;;;19.26;69.81
40992;BME280;29633;49.168;9.848;2023-04-29T12:33:22;96815.47;;;19.26;69.76
40992;BME280;29633;49.168;9.848;2023-04-29T12:35:53;96816.28;;;19.27;70.02
40992;BME280;29633;49.168;9.848;2023-04-29T12:38:28;96823.50;;;19.25;70.02
40992;BME280;29633;49.168;9.848;2023-04-29T12:40:55;96819.28;;;19.24;69.63
40992;BME280;29633;49.168;9.848;2023-04-29T12:43:27;96823.03;;;19.21;69.94
40992;BME280;29633;49.168;9.848;2023-04-29T12:45:59;96832.56;;;19.22;69.64
40992;BME280;29633;49.168;9.848;2023-04-29T12:48:29;96828.97;;;19.23;69.82
40992;BME280;29633;49.168;9.848;2023-04-29T12:50:55;96833.03;;;19.26;69.42
40992;BME280;29633;49.168;9.848;2023-04-29T12:53:22;96834.31;;;19.30;69.77
40992;BME280;29633;49.168;9.848;2023-04-29T12:55:48;96841.59;;;19.28;69.65
40992;BME280;29633;49.168;9.848;2023-04-29T12:58:14;96839.28;;;19.25;69.71
40992;BME280;29633;49.168;9.848;2023-04-29T13:00:40;96837.47;;;19.25;69.50
40992;BME280;29633;49.168;9.848;2023-04-29T13:03:05;96834.84;;;19.25;69.88
40992;BME280;29633;49.168;9.848;2023-04-29T13:05:32;96830.94;;;19.21;69.47
40992;BME280;29633;49.168;9.848;2023-04-29T13:07:57;96832.31;;;19.17;69.48
40992;BME280;29633;49.168;9.848;2023-04-29T13:10:23;96834.09;;;19.16;69.61
40992;BME280;29633;49.168;9.848;2023-04-29T13:12:49;96836.53;;;19.18;69.39
40992;BME280;29633;49.168;9.848;2023-04-29T13:15:15;96838.91;;;19.13;69.59
40992;BME280;29633;49.168;9.848;2023-04-29T13:17:40;96845.84;;;19.06;69.39